sensor_id;sensor_type;location;lat;lon;timestamp;temperature;humidity
1355;DHT22;671;48.972;9.276;2023-04-08T00:00:48;9.90;1.00
1355;DHT22;671;48.972;9.276;2023-04-08T00:03:14;9.90;1.00
1355;DHT22;671;48.972;9.276;2023-04-08T00:05:41;9.90;1.00
1355;DHT22;671;48.972;9.276;2023-04-08T00:08:07;9.90;1.00
1355;DHT22;671;48.972;9.276;2023-04-08T00:10:34;9.90;1.00
1355;DHT22;671;48.972;9.276;2023-04-08T00:13:00;9.90;1.00
1355;DHT22;671;48.972;9.276;2023-04-08T00:15:27;9.80;1.00
1355;DHT22;671;48.972;9.276;2023-04-08T00:17:53;9.90;1.00
1355;DHT22;671;48.972;9.276;2023-04-08T00:20:21;9.80;1.00
1355;DHT22;671;48.972;9.276;2023-04-08T00:22:48;9.80;1.00
1355;DHT22;671;48.972;9.276;2023-04-08T00:25:14;9.80;1.00
1355;DHT22;671;48.972;9.276;2023-04-08T00:27:41;9.80;1.00
1355;DHT22;671;48.972;9.276;2023-04-08T00:30:08;9.90;1.00
1355;DHT22;671;48.972;9.276;2023-04-08T00:32:35;9.80;1.00
1355;DHT22;671;48.972;9.276;2023-04-08T00:35:01;9.80;1.00
1355;DHT22;671;48.972;9.276;2023-04-08T00:37:28;9.80;1.00
1355;DHT22;671;48.972;9.276;2023-04-08T00:39:54;9.80;1.00
1355;DHT22;671;48.972;9.276;2023-04-08T00:42:21;9.80;1.00
1355;DHT22;671;48.972;9.276;2023-04-08T00:44:47;9.80;1.00
1355;DHT22;671;48.972;9.276;2023-04-08T00:47:15;9.70;1.00
1355;DHT22;671;48.972;9.276;2023-04-08T00:49:42;9.70;1.00
1355;DHT22;671;48.972;9.276;2023-04-08T00:52:09;9.70;1.00
1355;DHT22;671;48.972;9.276;2023-04-08T00:54:36;9.60;1.00
1355;DHT22;671;48.972;9.276;2023-04-08T00:57:04;9.70;1.00
1355;DHT22;671;48.972;9.276;2023-04-08T00:59:32;9.60;1.00
1355;DHT22;671;48.972;9.276;2023-04-08T01:02:11;9.60;1.00
1355;DHT22;671;48.972;9.276;2023-04-08T01:09:56;9.50;1.00
1355;DHT22;671;48.972;9.276;2023-04-08T01:12:26;9.50;1.00
1355;DHT22;671;48.972;9.276;2023-04-08T01:15:04;9.50;1.00
1355;DHT22;671;48.972;9.276;2023-04-08T01:17:32;9.50;1.00
1355;DHT22;671;48.972;9.276;2023-04-08T01:20:00;9.50;1.00
1355;DHT22;671;48.972;9.276;2023-04-08T01:22:43;9.50;1.00
1355;DHT22;671;48.972;9.276;2023-04-08T01:25:16;9.50;1.00
1355;DHT22;671;48.972;9.276;2023-04-08T01:27:44;9.50;1.00
1355;DHT22;671;48.972;9.276;2023-04-08T01:30:13;9.50;1.00
1355;DHT22;671;48.972;9.276;2023-04-08T01:32:40;9.50;1.00
1355;DHT22;671;48.972;9.276;2023-04-08T01:35:08;9.50;1.00
1355;DHT22;671;48.972;9.276;2023-04-08T01:37:36;9.50;1.00
1355;DHT22;671;48.972;9.276;2023-04-08T01:40:06;9.40;1.00
1355;DHT22;671;48.972;9.276;2023-04-08T01:42:33;9.50;1.00
1355;DHT22;671;48.972;9.276;2023-04-08T01:45:01;9.50;1.00
1355;DHT22;671;48.972;9.276;2023-04-08T01:47:28;9.40;1.00
1355;DHT22;671;48.972;9.276;2023-04-08T01:49:55;9.50;1.00
1355;DHT22;671;48.972;9.276;2023-04-08T01:52:23;9.40;1.00
1355;DHT22;671;48.972;9.276;2023-04-08T01:54:50;9.40;1.00
1355;DHT22;671;48.972;9.276;2023-04-08T01:57:26;9.40;1.00
1355;DHT22;671;48.972;9.276;2023-04-08T01:59:55;9.40;1.00
1355;DHT22;671;48.972;9.276;2023-04-08T02:02:24;9.40;1.00
1355;DHT22;671;48.972;9.276;2023-04-08T02:04:55;9.40;1.00
1355;DHT22;671;48.972;9.276;2023-04-08T02:07:21;9.40;1.00
1355;DHT22;671;48.972;9.276;2023-04-08T02:09:49;9.40;1.00
1355;DHT22;671;48.972;9.276;2023-04-08T02:12:16;9.30;1.00
1355;DHT22;671;48.972;9.276;2023-04-08T02:14:43;9.20;1.00
1355;DHT22;671;48.972;9.276;2023-04-08T02:19:45;9.10;1.00
1355;DHT22;671;48.972;9.276;2023-04-08T02:22:47;9.10;1.00
1355;DHT22;671;48.972;9.276;2023-04-08T02:25:16;9.00;1.00
1355;DHT22;671;48.972;9.276;2023-04-08T02:27:44;9.00;1.00
1355;DHT22;671;48.972;9.276;2023-04-08T02:30:12;9.00;1.00
1355;DHT22;671;48.972;9.276;2023-04-08T02:32:39;9.00;1.00
1355;DHT22;671;48.972;9.276;2023-04-08T02:35:06;9.00;1.00
1355;DHT22;671;48.972;9.276;2023-04-08T02:37:34;8.90;1.00
1355;DHT22;671;48.972;9.276;2023-04-08T02:40:02;8.90;1.00
1355;DHT22;671;48.972;9.276;2023-04-08T02:42:28;8.90;1.00
1355;DHT22;671;48.972;9.276;2023-04-08T02:44:56;8.90;1.00
1355;DHT22;671;48.972;9.276;2023-04-08T02:47:22;8.90;1.00
1355;DHT22;671;48.972;9.276;2023-04-08T02:49:49;8.90;1.00
1355;DHT22;671;48.972;9.276;2023-04-08T02:52:18;8.80;1.00
1355;DHT22;671;48.972;9.276;2023-04-08T02:54:45;8.80;1.00
1355;DHT22;671;48.972;9.276;2023-04-08T02:57:11;8.80;1.00
1355;DHT22;671;48.972;9.276;2023-04-08T02:59:38;8.70;1.00
1355;DHT22;671;48.972;9.276;2023-04-08T03:02:06;8.70;1.00
1355;DHT22;671;48.972;9.276;2023-04-08T03:04:32;8.70;1.00
1355;DHT22;671;48.972;9.276;2023-04-08T03:06:58;8.70;1.00
1355;DHT22;671;48.972;9.276;2023-04-08T03:09:25;8.60;1.00
1355;DHT22;671;48.972;9.276;2023-04-08T03:11:51;8.60;1.00
1355;DHT22;671;48.972;9.276;2023-04-08T03:14:20;8.60;1.00
1355;DHT22;671;48.972;9.276;2023-04-08T03:16:47;8.60;1.00
1355;DHT22;671;48.972;9.276;2023-04-08T03:19:13;8.60;1.00
1355;DHT22;671;48.972;9.276;2023-04-08T03:21:40;8.50;1.00
1355;DHT22;671;48.972;9.276;2023-04-08T03:24:07;8.50;1.00
1355;DHT22;671;48.972;9.276;2023-04-08T03:26:33;8.50;1.00
1355;DHT22;671;48.972;9.276;2023-04-08T03:29:00;8.40;1.00
1355;DHT22;671;48.972;9.276;2023-04-08T03:31:26;8.40;1.00
1355;DHT22;671;48.972;9.276;2023-04-08T03:33:53;8.40;1.00
1355;DHT22;671;48.972;9.276;2023-04-08T03:36:19;8.30;1.00
1355;DHT22;671;48.972;9.276;2023-04-08T03:38:46;8.30;1.00
1355;DHT22;671;48.972;9.276;2023-04-08T03:41:12;8.20;1.00
1355;DHT22;671;48.972;9.276;2023-04-08T03:43:38;8.20;1.00
1355;DHT22;671;48.972;9.276;2023-04-08T03:46:05;8.10;1.00
1355;DHT22;671;48.972;9.276;2023-04-08T03:48:31;8.10;1.00
1355;DHT22;671;48.972;9.276;2023-04-08T03:50:58;8.00;1.00
1355;DHT22;671;48.972;9.276;2023-04-08T03:53:24;7.90;1.00
1355;DHT22;671;48.972;9.276;2023-04-08T03:55:53;7.90;1.00
1355;DHT22;671;48.972;9.276;2023-04-08T03:58:19;7.80;1.00
1355;DHT22;671;48.972;9.276;2023-04-08T04:00:46;7.70;1.00
1355;DHT22;671;48.972;9.276;2023-04-08T04:03:12;7.60;1.00
1355;DHT22;671;48.972;9.276;2023-04-08T04:05:39;7.60;1.00
1355;DHT22;671;48.972;9.276;2023-04-08T04:08:06;7.50;1.00
1355;DHT22;671;48.972;9.276;2023-04-08T04:10:34;7.50;1.00
1355;DHT22;671;48.972;9.276;2023-04-08T04:13:01;7.50;1.00
1355;DHT22;671;48.972;9.276;2023-04-08T04:15:27;7.40;1.00
1355;DHT22;671;48.972;9.276;2023-04-08T04:17:54;7.40;1.00
1355;DHT22;671;48.972;9.276;2023-04-08T04:20:20;7.40;1.00
1355;DHT22;671;48.972;9.276;2023-04-08T04:22:47;7.30;2.50
1355;DHT22;671;48.972;9.276;2023-04-08T04:25:13;7.30;7.20
1355;DHT22;671;48.972;9.276;2023-04-08T04:27:40;7.30;14.20
1355;DHT22;671;48.972;9.276;2023-04-08T04:30:06;7.20;21.90
1355;DHT22;671;48.972;9.276;2023-04-08T04:32:34;7.20;21.60
1355;DHT22;671;48.972;9.276;2023-04-08T04:35:01;7.20;18.30
1355;DHT22;671;48.972;9.276;2023-04-08T04:37:27;7.20;17.50
1355;DHT22;671;48.972;9.276;2023-04-08T04:39:53;7.20;21.50
1355;DHT22;671;48.972;9.276;2023-04-08T04:42:20;7.20;19.10
1355;DHT22;671;48.972;9.276;2023-04-08T04:44:47;7.20;21.30
1355;DHT22;671;48.972;9.276;2023-04-08T04:47:13;7.20;22.90
1355;DHT22;671;48.972;9.276;2023-04-08T04:49:41;7.30;20.80
1355;DHT22;671;48.972;9.276;2023-04-08T04:52:08;7.30;18.50
1355;DHT22;671;48.972;9.276;2023-04-08T04:54:34;7.40;11.80
1355;DHT22;671;48.972;9.276;2023-04-08T04:57:00;7.40;8.60
1355;DHT22;671;48.972;9.276;2023-04-08T04:59:27;7.50;4.10
1355;DHT22;671;48.972;9.276;2023-04-08T05:01:53;7.50;2.60
1355;DHT22;671;48.972;9.276;2023-04-08T05:04:23;7.50;1.90
1355;DHT22;671;48.972;9.276;2023-04-08T05:06:50;7.60;1.90
1355;DHT22;671;48.972;9.276;2023-04-08T05:09:16;7.60;2.00
1355;DHT22;671;48.972;9.276;2023-04-08T05:11:43;7.60;1.00
1355;DHT22;671;48.972;9.276;2023-04-08T05:14:09;7.60;1.00
1355;DHT22;671;48.972;9.276;2023-04-08T05:16:36;7.70;1.00
1355;DHT22;671;48.972;9.276;2023-04-08T05:19:02;7.70;1.00
1355;DHT22;671;48.972;9.276;2023-04-08T05:21:28;7.80;1.00
1355;DHT22;671;48.972;9.276;2023-04-08T05:23:55;7.80;1.00
1355;DHT22;671;48.972;9.276;2023-04-08T05:26:22;7.90;1.00
1355;DHT22;671;48.972;9.276;2023-04-08T05:28:49;7.90;1.00
1355;DHT22;671;48.972;9.276;2023-04-08T05:31:19;8.00;1.00
1355;DHT22;671;48.972;9.276;2023-04-08T05:33:46;8.00;1.00
1355;DHT22;671;48.972;9.276;2023-04-08T05:36:13;8.00;1.00
1355;DHT22;671;48.972;9.276;2023-04-08T05:38:40;8.10;1.00
1355;DHT22;671;48.972;9.276;2023-04-08T05:41:08;8.10;1.00
1355;DHT22;671;48.972;9.276;2023-04-08T05:43:35;8.20;1.00
1355;DHT22;671;48.972;9.276;2023-04-08T05:46:08;8.20;1.00
1355;DHT22;671;48.972;9.276;2023-04-08T05:48:35;8.30;1.00
1355;DHT22;671;48.972;9.276;2023-04-08T05:51:02;8.30;1.00
1355;DHT22;671;48.972;9.276;2023-04-08T05:53:29;8.40;1.00
1355;DHT22;671;48.972;9.276;2023-04-08T05:55:55;8.40;1.00
1355;DHT22;671;48.972;9.276;2023-04-08T05:58:21;8.50;1.00
1355;DHT22;671;48.972;9.276;2023-04-08T06:00:48;8.50;1.00
1355;DHT22;671;48.972;9.276;2023-04-08T06:03:14;8.60;1.00
1355;DHT22;671;48.972;9.276;2023-04-08T06:05:41;8.70;1.00
1355;DHT22;671;48.972;9.276;2023-04-08T06:08:08;8.80;1.00
1355;DHT22;671;48.972;9.276;2023-04-08T06:10:34;8.80;1.00
1355;DHT22;671;48.972;9.276;2023-04-08T06:13:01;8.90;1.00
1355;DHT22;671;48.972;9.276;2023-04-08T06:15:27;9.00;1.00
1355;DHT22;671;48.972;9.276;2023-04-08T06:17:54;9.10;1.00
1355;DHT22;671;48.972;9.276;2023-04-08T06:20:20;9.20;1.00
1355;DHT22;671;48.972;9.276;2023-04-08T06:22:47;9.30;1.00
1355;DHT22;671;48.972;9.276;2023-04-08T06:25:13;9.30;1.00
1355;DHT22;671;48.972;9.276;2023-04-08T06:27:40;9.40;1.00
1355;DHT22;671;48.972;9.276;2023-04-08T06:30:07;9.50;1.00
1355;DHT22;671;48.972;9.276;2023-04-08T06:32:33;9.50;1.00
1355;DHT22;671;48.972;9.276;2023-04-08T06:35:00;9.50;1.00
1355;DHT22;671;48.972;9.276;2023-04-08T06:37:26;9.60;1.00
1355;DHT22;671;48.972;9.276;2023-04-08T06:39:53;9.80;1.00
1355;DHT22;671;48.972;9.276;2023-04-08T06:42:19;9.90;1.00
1355;DHT22;671;48.972;9.276;2023-04-08T06:44:46;9.90;1.00
1355;DHT22;671;48.972;9.276;2023-04-08T06:47:12;10.00;1.00
1355;DHT22;671;48.972;9.276;2023-04-08T06:49:39;10.20;1.00
1355;DHT22;671;48.972;9.276;2023-04-08T06:52:06;10.20;1.00
1355;DHT22;671;48.972;9.276;2023-04-08T06:54:33;10.20;1.00
1355;DHT22;671;48.972;9.276;2023-04-08T06:56:59;10.20;1.00
1355;DHT22;671;48.972;9.276;2023-04-08T06:59:26;10.20;1.00
1355;DHT22;671;48.972;9.276;2023-04-08T07:01:52;10.20;1.00
1355;DHT22;671;48.972;9.276;2023-04-08T07:04:19;10.30;1.00
1355;DHT22;671;48.972;9.276;2023-04-08T07:06:46;10.40;1.00
1355;DHT22;671;48.972;9.276;2023-04-08T07:09:12;10.30;1.00
1355;DHT22;671;48.972;9.276;2023-04-08T07:11:38;10.30;1.00
1355;DHT22;671;48.972;9.276;2023-04-08T07:14:05;10.40;1.00
1355;DHT22;671;48.972;9.276;2023-04-08T07:16:31;10.40;1.00
1355;DHT22;671;48.972;9.276;2023-04-08T07:18:58;10.50;1.00
1355;DHT22;671;48.972;9.276;2023-04-08T07:21:24;10.50;1.00
1355;DHT22;671;48.972;9.276;2023-04-08T07:23:51;10.50;1.00
1355;DHT22;671;48.972;9.276;2023-04-08T07:26:17;10.50;1.00
1355;DHT22;671;48.972;9.276;2023-04-08T07:28:44;10.60;1.00
1355;DHT22;671;48.972;9.276;2023-04-08T07:31:15;10.80;1.00
1355;DHT22;671;48.972;9.276;2023-04-08T07:33:43;10.80;1.00
1355;DHT22;671;48.972;9.276;2023-04-08T07:36:10;10.80;1.00
1355;DHT22;671;48.972;9.276;2023-04-08T07:38:37;10.90;1.00
1355;DHT22;671;48.972;9.276;2023-04-08T07:41:04;11.00;1.00
1355;DHT22;671;48.972;9.276;2023-04-08T07:43:31;11.10;1.00
1355;DHT22;671;48.972;9.276;2023-04-08T07:46:00;11.10;1.00
1355;DHT22;671;48.972;9.276;2023-04-08T07:48:30;11.20;1.00
1355;DHT22;671;48.972;9.276;2023-04-08T07:50:57;11.20;1.00
1355;DHT22;671;48.972;9.276;2023-04-08T07:53:27;11.30;1.00
1355;DHT22;671;48.972;9.276;2023-04-08T07:55:55;11.30;1.00
1355;DHT22;671;48.972;9.276;2023-04-08T07:58:21;11.50;1.00
1355;DHT22;671;48.972;9.276;2023-04-08T08:00:48;11.50;1.00
1355;DHT22;671;48.972;9.276;2023-04-08T08:03:14;11.50;1.00
1355;DHT22;671;48.972;9.276;2023-04-08T08:05:41;11.70;1.00
1355;DHT22;671;48.972;9.276;2023-04-08T08:08:08;11.80;1.00
1355;DHT22;671;48.972;9.276;2023-04-08T08:10:39;11.90;99.90
1355;DHT22;671;48.972;9.276;2023-04-08T08:13:06;12.10;99.90
1355;DHT22;671;48.972;9.276;2023-04-08T08:15:33;12.20;99.90
1355;DHT22;671;48.972;9.276;2023-04-08T08:17:59;12.30;29.00
1355;DHT22;671;48.972;9.276;2023-04-08T08:20:26;12.30;99.90
1355;DHT22;671;48.972;9.276;2023-04-08T08:22:53;12.50;99.90
1355;DHT22;671;48.972;9.276;2023-04-08T08:25:19;12.60;78.20
1355;DHT22;671;48.972;9.276;2023-04-08T08:27:46;12.60;1.00
1355;DHT22;671;48.972;9.276;2023-04-08T08:30:12;12.60;99.90
1355;DHT22;671;48.972;9.276;2023-04-08T08:32:39;12.70;99.90
1355;DHT22;671;48.972;9.276;2023-04-08T08:35:05;12.70;1.00
1355;DHT22;671;48.972;9.276;2023-04-08T08:37:33;12.70;1.00
1355;DHT22;671;48.972;9.276;2023-04-08T08:39:59;12.70;1.00
1355;DHT22;671;48.972;9.276;2023-04-08T08:42:26;12.60;99.90
1355;DHT22;671;48.972;9.276;2023-04-08T08:44:53;12.60;1.00
1355;DHT22;671;48.972;9.276;2023-04-08T08:47:20;12.60;1.00
1355;DHT22;671;48.972;9.276;2023-04-08T08:49:46;12.70;34.20
1355;DHT22;671;48.972;9.276;2023-04-08T08:52:16;12.70;1.00
1355;DHT22;671;48.972;9.276;2023-04-08T08:54:44;12.70;87.50
1355;DHT22;671;48.972;9.276;2023-04-08T08:57:37;12.80;1.00
1355;DHT22;671;48.972;9.276;2023-04-08T09:00:04;12.80;1.00
1355;DHT22;671;48.972;9.276;2023-04-08T09:02:31;12.80;1.00
1355;DHT22;671;48.972;9.276;2023-04-08T09:04:59;12.90;1.00
1355;DHT22;671;48.972;9.276;2023-04-08T09:07:28;13.00;1.00
1355;DHT22;671;48.972;9.276;2023-04-08T09:09:56;12.90;1.00
1355;DHT22;671;48.972;9.276;2023-04-08T09:12:24;12.90;1.00
1355;DHT22;671;48.972;9.276;2023-04-08T09:15:08;13.00;1.00
1355;DHT22;671;48.972;9.276;2023-04-08T09:17:37;13.00;1.00
1355;DHT22;671;48.972;9.276;2023-04-08T09:20:05;13.00;1.00
1355;DHT22;671;48.972;9.276;2023-04-08T09:22:56;13.20;1.00
1355;DHT22;671;48.972;9.276;2023-04-08T09:25:30;13.10;1.00
1355;DHT22;671;48.972;9.276;2023-04-08T09:27:58;13.20;1.00
1355;DHT22;671;48.972;9.276;2023-04-08T09:30:26;13.40;1.00
1355;DHT22;671;48.972;9.276;2023-04-08T09:32:54;13.60;1.00
1355;DHT22;671;48.972;9.276;2023-04-08T09:35:22;13.70;7.10
1355;DHT22;671;48.972;9.276;2023-04-08T09:37:49;13.80;10.30
1355;DHT22;671;48.972;9.276;2023-04-08T09:40:16;13.80;75.30
1355;DHT22;671;48.972;9.276;2023-04-08T09:42:47;13.80;99.90
1355;DHT22;671;48.972;9.276;2023-04-08T09:45:17;13.80;99.90
1355;DHT22;671;48.972;9.276;2023-04-08T09:50:26;13.70;99.90
1355;DHT22;671;48.972;9.276;2023-04-08T09:53:01;13.80;99.90
1355;DHT22;671;48.972;9.276;2023-04-08T09:55:35;13.70;99.90
1355;DHT22;671;48.972;9.276;2023-04-08T09:58:07;13.60;99.90
1355;DHT22;671;48.972;9.276;2023-04-08T10:00:43;13.60;99.90
1355;DHT22;671;48.972;9.276;2023-04-08T10:03:29;13.60;99.90
1355;DHT22;671;48.972;9.276;2023-04-08T10:05:57;13.50;99.60
1355;DHT22;671;48.972;9.276;2023-04-08T10:08:26;13.50;99.20
1355;DHT22;671;48.972;9.276;2023-04-08T10:10:54;13.40;99.80
1355;DHT22;671;48.972;9.276;2023-04-08T10:13:22;13.30;99.90
1355;DHT22;671;48.972;9.276;2023-04-08T10:15:49;13.30;99.90
1355;DHT22;671;48.972;9.276;2023-04-08T10:20:47;13.20;99.90
1355;DHT22;671;48.972;9.276;2023-04-08T10:23:16;13.20;99.40
1355;DHT22;671;48.972;9.276;2023-04-08T10:25:43;13.20;99.50
1355;DHT22;671;48.972;9.276;2023-04-08T10:30:41;13.10;99.90
1355;DHT22;671;48.972;9.276;2023-04-08T10:38:37;13.00;99.90
1355;DHT22;671;48.972;9.276;2023-04-08T10:41:04;13.00;99.90
1355;DHT22;671;48.972;9.276;2023-04-08T10:43:32;13.00;99.90
1355;DHT22;671;48.972;9.276;2023-04-08T10:45:59;12.90;99.90
1355;DHT22;671;48.972;9.276;2023-04-08T10:48:25;12.90;99.90
1355;DHT22;671;48.972;9.276;2023-04-08T10:51:01;12.90;99.90
1355;DHT22;671;48.972;9.276;2023-04-08T10:53:32;12.90;99.90
1355;DHT22;671;48.972;9.276;2023-04-08T10:56:06;12.80;99.90
1355;DHT22;671;48.972;9.276;2023-04-08T10:58:49;12.80;99.90
1355;DHT22;671;48.972;9.276;2023-04-08T11:01:16;12.70;99.90
1355;DHT22;671;48.972;9.276;2023-04-08T11:03:43;12.70;99.90
1355;DHT22;671;48.972;9.276;2023-04-08T11:06:10;12.70;99.90
1355;DHT22;671;48.972;9.276;2023-04-08T11:08:37;12.70;99.90
1355;DHT22;671;48.972;9.276;2023-04-08T11:11:05;12.70;99.90
1355;DHT22;671;48.972;9.276;2023-04-08T11:13:39;12.80;99.90
1355;DHT22;671;48.972;9.276;2023-04-08T11:16:07;12.80;99.90
1355;DHT22;671;48.972;9.276;2023-04-08T11:18:36;12.90;99.90
1355;DHT22;671;48.972;9.276;2023-04-08T11:21:07;12.90;99.90
1355;DHT22;671;48.972;9.276;2023-04-08T11:23:35;12.80;99.90
1355;DHT22;671;48.972;9.276;2023-04-08T11:26:01;12.80;99.90
1355;DHT22;671;48.972;9.276;2023-04-08T11:28:29;12.80;99.90
1355;DHT22;671;48.972;9.276;2023-04-08T11:30:56;12.80;99.90
1355;DHT22;671;48.972;9.276;2023-04-08T11:33:26;12.80;99.90
1355;DHT22;671;48.972;9.276;2023-04-08T11:35:53;12.70;99.90
1355;DHT22;671;48.972;9.276;2023-04-08T11:38:23;12.70;99.90
1355;DHT22;671;48.972;9.276;2023-04-08T11:40:53;12.80;99.90
1355;DHT22;671;48.972;9.276;2023-04-08T11:43:20;12.70;99.90
1355;DHT22;671;48.972;9.276;2023-04-08T11:45:47;12.80;99.90
1355;DHT22;671;48.972;9.276;2023-04-08T11:48:14;12.80;99.90
1355;DHT22;671;48.972;9.276;2023-04-08T11:50:42;12.70;99.90
1355;DHT22;671;48.972;9.276;2023-04-08T11:53:19;12.70;99.90
1355;DHT22;671;48.972;9.276;2023-04-08T11:55:46;12.80;99.90
1355;DHT22;671;48.972;9.276;2023-04-08T11:58:14;12.80;99.90
1355;DHT22;671;48.972;9.276;2023-04-08T12:00:41;12.80;99.90
1355;DHT22;671;48.972;9.276;2023-04-08T12:03:08;12.80;99.90
1355;DHT22;671;48.972;9.276;2023-04-08T12:05:35;12.90;99.90
1355;DHT22;671;48.972;9.276;2023-04-08T12:08:01;12.90;99.90
1355;DHT22;671;48.972;9.276;2023-04-08T12:10:28;13.00;99.90
1355;DHT22;671;48.972;9.276;2023-04-08T12:12:55;13.20;99.90
1355;DHT22;671;48.972;9.276;2023-04-08T12:15:22;13.40;99.90
1355;DHT22;671;48.972;9.276;2023-04-08T12:17:48;13.50;99.90
1355;DHT22;671;48.972;9.276;2023-04-08T12:20:14;13.60;99.90
1355;DHT22;671;48.972;9.276;2023-04-08T12:22:42;13.70;99.90
1355;DHT22;671;48.972;9.276;2023-04-08T12:25:09;13.90;99.90
1355;DHT22;671;48.972;9.276;2023-04-08T12:27:35;14.00;99.90
1355;DHT22;671;48.972;9.276;2023-04-08T12:30:02;14.10;99.90
1355;DHT22;671;48.972;9.276;2023-04-08T12:32:29;14.20;99.90
1355;DHT22;671;48.972;9.276;2023-04-08T12:34:55;14.30;99.90
1355;DHT22;671;48.972;9.276;2023-04-08T12:37:22;14.30;99.90
1355;DHT22;671;48.972;9.276;2023-04-08T12:39:48;14.40;99.90
1355;DHT22;671;48.972;9.276;2023-04-08T12:42:15;14.70;99.90
1355;DHT22;671;48.972;9.276;2023-04-08T12:44:42;14.90;99.90
1355;DHT22;671;48.972;9.276;2023-04-08T12:47:08;14.90;99.90
1355;DHT22;671;48.972;9.276;2023-04-08T12:49:34;14.80;99.90
1355;DHT22;671;48.972;9.276;2023-04-08T12:52:01;14.80;99.90
1355;DHT22;671;48.972;9.276;2023-04-08T12:54:28;14.70;99.80
1355;DHT22;671;48.972;9.276;2023-04-08T12:56:56;14.80;99.90
1355;DHT22;671;48.972;9.276;2023-04-08T12:59:23;14.70;99.70
1355;DHT22;671;48.972;9.276;2023-04-08T13:01:49;14.60;99.50
1355;DHT22;671;48.972;9.276;2023-04-08T13:04:16;14.60;99.80
1355;DHT22;671;48.972;9.276;2023-04-08T13:06:43;14.70;99.90
1355;DHT22;671;48.972;9.276;2023-04-08T13:09:09;14.80;99.90
1355;DHT22;671;48.972;9.276;2023-04-08T13:11:35;14.70;99.80
1355;DHT22;671;48.972;9.276;2023-04-08T13:14:02;14.70;99.30
1355;DHT22;671;48.972;9.276;2023-04-08T13:16:28;14.50;99.00
1355;DHT22;671;48.972;9.276;2023-04-08T13:18:55;14.50;99.20
1355;DHT22;671;48.972;9.276;2023-04-08T13:21:22;14.40;99.20
1355;DHT22;671;48.972;9.276;2023-04-08T13:23:48;14.30;99.40
1355;DHT22;671;48.972;9.276;2023-04-08T13:26:15;14.30;99.60
1355;DHT22;671;48.972;9.276;2023-04-08T13:28:41;14.30;99.40
1355;DHT22;671;48.972;9.276;2023-04-08T13:31:07;14.30;99.50
1355;DHT22;671;48.972;9.276;2023-04-08T13:33:34;14.20;99.20
1355;DHT22;671;48.972;9.276;2023-04-08T13:36:00;14.40;99.70
1355;DHT22;671;48.972;9.276;2023-04-08T13:38:27;14.50;99.70
1355;DHT22;671;48.972;9.276;2023-04-08T13:40:53;14.50;99.20
1355;DHT22;671;48.972;9.276;2023-04-08T13:43:20;14.70;99.00
1355;DHT22;671;48.972;9.276;2023-04-08T13:45:47;14.90;98.70
1355;DHT22;671;48.972;9.276;2023-04-08T13:48:14;15.00;98.80
1355;DHT22;671;48.972;9.276;2023-04-08T13:50:40;15.00;98.70
1355;DHT22;671;48.972;9.276;2023-04-08T13:53:07;14.90;98.20
1355;DHT22;671;48.972;9.276;2023-04-08T13:55:34;15.00;99.00
1355;DHT22;671;48.972;9.276;2023-04-08T13:58:00;15.00;98.10
1355;DHT22;671;48.972;9.276;2023-04-08T14:00:27;14.90;98.40
1355;DHT22;671;48.972;9.276;2023-04-08T14:02:53;14.90;99.40
1355;DHT22;671;48.972;9.276;2023-04-08T14:05:19;14.90;98.40
1355;DHT22;671;48.972;9.276;2023-04-08T14:07:46;15.00;98.90
1355;DHT22;671;48.972;9.276;2023-04-08T14:10:12;14.90;98.40
1355;DHT22;671;48.972;9.276;2023-04-08T14:12:40;14.70;98.60
1355;DHT22;671;48.972;9.276;2023-04-08T14:15:07;14.60;98.90
1355;DHT22;671;48.972;9.276;2023-04-08T14:17:34;14.50;99.00
1355;DHT22;671;48.972;9.276;2023-04-08T14:20:01;14.50;98.80
1355;DHT22;671;48.972;9.276;2023-04-08T14:22:28;14.50;99.10
1355;DHT22;671;48.972;9.276;2023-04-08T14:24:54;14.50;99.20
1355;DHT22;671;48.972;9.276;2023-04-08T14:27:21;14.50;99.40
1355;DHT22;671;48.972;9.276;2023-04-08T14:29:47;14.40;99.70
1355;DHT22;671;48.972;9.276;2023-04-08T14:32:14;14.30;99.90
1355;DHT22;671;48.972;9.276;2023-04-08T14:34:40;14.30;99.90
1355;DHT22;671;48.972;9.276;2023-04-08T14:37:07;14.20;99.90
1355;DHT22;671;48.972;9.276;2023-04-08T14:39:33;14.10;99.70
1355;DHT22;671;48.972;9.276;2023-04-08T14:42:00;14.10;99.90
1355;DHT22;671;48.972;9.276;2023-04-08T14:44:27;14.00;99.90
1355;DHT22;671;48.972;9.276;2023-04-08T14:46:53;14.00;99.90
1355;DHT22;671;48.972;9.276;2023-04-08T14:49:19;14.00;99.90
1355;DHT22;671;48.972;9.276;2023-04-08T14:51:46;14.00;99.90
1355;DHT22;671;48.972;9.276;2023-04-08T14:54:12;14.10;99.90
1355;DHT22;671;48.972;9.276;2023-04-08T14:56:39;14.10;99.90
1355;DHT22;671;48.972;9.276;2023-04-08T14:59:05;14.10;99.90
1355;DHT22;671;48.972;9.276;2023-04-08T15:01:32;14.10;99.90
1355;DHT22;671;48.972;9.276;2023-04-08T15:03:59;14.20;99.90
1355;DHT22;671;48.972;9.276;2023-04-08T15:06:25;14.30;99.90
1355;DHT22;671;48.972;9.276;2023-04-08T15:08:52;14.20;99.90
1355;DHT22;671;48.972;9.276;2023-04-08T15:11:19;14.20;99.90
1355;DHT22;671;48.972;9.276;2023-04-08T15:13:47;14.20;99.90
1355;DHT22;671;48.972;9.276;2023-04-08T15:16:13;14.20;99.90
1355;DHT22;671;48.972;9.276;2023-04-08T15:18:40;14.20;99.90
1355;DHT22;671;48.972;9.276;2023-04-08T15:21:07;14.20;99.90
1355;DHT22;671;48.972;9.276;2023-04-08T15:23:34;14.20;99.90
1355;DHT22;671;48.972;9.276;2023-04-08T15:26:00;14.00;99.90
1355;DHT22;671;48.972;9.276;2023-04-08T15:28:27;13.80;99.90
1355;DHT22;671;48.972;9.276;2023-04-08T15:30:53;13.70;99.90
1355;DHT22;671;48.972;9.276;2023-04-08T15:33:20;13.60;99.90
1355;DHT22;671;48.972;9.276;2023-04-08T15:35:46;13.60;99.90
1355;DHT22;671;48.972;9.276;2023-04-08T15:38:13;13.50;99.90
1355;DHT22;671;48.972;9.276;2023-04-08T15:40:41;13.50;99.90
1355;DHT22;671;48.972;9.276;2023-04-08T15:43:07;13.40;99.90
1355;DHT22;671;48.972;9.276;2023-04-08T15:45:41;13.30;99.90
1355;DHT22;671;48.972;9.276;2023-04-08T15:48:07;13.30;99.90
1355;DHT22;671;48.972;9.276;2023-04-08T15:50:34;13.30;99.90
1355;DHT22;671;48.972;9.276;2023-04-08T15:53:00;13.30;99.90
1355;DHT22;671;48.972;9.276;2023-04-08T15:55:27;13.30;99.90
1355;DHT22;671;48.972;9.276;2023-04-08T15:57:53;13.30;99.90
1355;DHT22;671;48.972;9.276;2023-04-08T16:00:22;13.30;99.90
1355;DHT22;671;48.972;9.276;2023-04-08T16:02:49;13.30;99.90
1355;DHT22;671;48.972;9.276;2023-04-08T16:05:15;13.30;99.90
1355;DHT22;671;48.972;9.276;2023-04-08T16:07:42;13.20;99.90
1355;DHT22;671;48.972;9.276;2023-04-08T16:10:08;13.20;99.90
1355;DHT22;671;48.972;9.276;2023-04-08T16:12:35;13.10;99.90
1355;DHT22;671;48.972;9.276;2023-04-08T16:15:01;13.00;99.90
1355;DHT22;671;48.972;9.276;2023-04-08T16:17:28;12.90;99.90
1355;DHT22;671;48.972;9.276;2023-04-08T16:19:54;12.90;99.90
1355;DHT22;671;48.972;9.276;2023-04-08T16:22:21;12.90;99.90
1355;DHT22;671;48.972;9.276;2023-04-08T16:24:47;12.80;99.90
1355;DHT22;671;48.972;9.276;2023-04-08T16:27:14;12.80;99.90
1355;DHT22;671;48.972;9.276;2023-04-08T16:29:41;12.70;99.90
1355;DHT22;671;48.972;9.276;2023-04-08T16:32:08;12.70;99.90
1355;DHT22;671;48.972;9.276;2023-04-08T16:34:35;12.70;99.90
1355;DHT22;671;48.972;9.276;2023-04-08T16:37:01;12.60;99.90
1355;DHT22;671;48.972;9.276;2023-04-08T16:39:28;12.60;99.90
1355;DHT22;671;48.972;9.276;2023-04-08T16:41:54;12.70;99.90
1355;DHT22;671;48.972;9.276;2023-04-08T16:44:21;12.70;99.90
1355;DHT22;671;48.972;9.276;2023-04-08T16:46:47;12.70;99.90
1355;DHT22;671;48.972;9.276;2023-04-08T16:49:14;12.60;99.90
1355;DHT22;671;48.972;9.276;2023-04-08T16:51:40;12.70;99.90
1355;DHT22;671;48.972;9.276;2023-04-08T16:54:07;12.70;99.90